Time;durP1;ratioP1;P1;durP2;ratioP2;P2;SDS_P1;SDS_P2;PMS_P1;PMS_P2;Temp;Humidity;BMP_temperature;BMP_pressure;BME280_temperature;BME280_humidity;BME280_pressure;Samples;Min_cycle;Max_cycle;Signal;HPM_P1;HPM_P2
2023/07/21 00:07:15;;;;;;;10.57;5.15;;;;;;;24.56;90.51;100405.34;21159465;27;20047;-75
2023/07/21 00:17:37;;;;;;;10.88;5.05;;;;;;;24.50;90.23;100405.66;21176567;27;20585;-75
2023/07/21 00:28:01;;;;;;;7.25;4.38;;;;;;;24.39;89.40;100407.13;21135414;27;20047;-75
2023/07/21 00:38:25;;;;;;;7.60;5.32;;;;;;;24.32;88.39;100409.22;21195188;27;20079;-74
2023/07/21 00:48:49;;;;;;;8.85;4.60;;;;;;;24.23;88.99;100409.63;21169245;28;20040;-75
2023/07/21 00:59:11;;;;;;;7.65;5.07;;;;;;;24.12;89.84;100409.22;21174664;28;20047;-75
2023/07/21 01:09:37;;;;;;;8.35;4.97;;;;;;;23.97;88.97;100416.19;21165911;28;20054;-75
2023/07/21 01:20:01;;;;;;;8.90;4.47;;;;;;;23.83;89.67;100411.41;21186924;27;20123;-74
2023/07/21 01:30:26;;;;;;;7.93;4.80;;;;;;;23.74;90.28;100403.75;21207353;27;20142;-75
2023/07/21 01:40:49;;;;;;;8.38;5.32;;;;;;;23.79;88.40;100406.22;21160181;27;20044;-75
2023/07/21 01:51:16;;;;;;;11.93;4.90;;;;;;;23.72;88.46;100405.63;21208077;27;20062;-75
2023/07/21 02:01:39;;;;;;;8.40;4.60;;;;;;;23.69;88.26;100421.09;21192958;27;20101;-74
2023/07/21 02:12:03;;;;;;;9.23;4.80;;;;;;;23.57;89.63;100429.66;21201711;27;20458;-75
2023/07/21 02:22:40;;;;;;;9.55;5.10;;;;;;;23.47;90.25;100431.91;21168920;27;20050;-74
2023/07/21 02:33:04;;;;;;;8.32;4.55;;;;;;;23.42;91.32;100428.50;21167272;27;20074;-74
2023/07/21 02:43:27;;;;;;;7.43;4.50;;;;;;;23.37;90.99;100425.97;21164905;27;20099;-75
2023/07/21 02:53:52;;;;;;;10.32;4.72;;;;;;;23.39;89.61;100423.22;21204666;27;20092;-74
2023/07/21 03:04:15;;;;;;;6.82;4.88;;;;;;;23.35;89.79;100435.97;21185434;27;20124;-75
2023/07/21 03:14:50;;;;;;;6.93;4.32;;;;;;;23.30;89.54;100439.81;21171102;27;20078;-74
2023/07/21 03:25:15;;;;;;;8.52;5.18;;;;;;;23.26;88.87;100454.31;21197664;27;20092;-74
2023/07/21 03:35:39;;;;;;;6.15;3.63;;;;;;;23.29;89.43;100460.47;21200769;27;20051;-75
2023/07/21 03:46:04;;;;;;;9.32;4.97;;;;;;;23.43;90.08;100465.28;21207504;27;20057;-75
2023/07/21 03:56:35;;;;;;;5.97;3.65;;;;;;;23.72;87.79;100470.34;21158256;27;20055;-75
2023/07/21 04:07:00;;;;;;;7.07;3.80;;;;;;;24.18;88.76;100479.97;21156780;27;20093;-75
2023/07/21 04:17:24;;;;;;;7.13;3.90;;;;;;;24.68;92.71;100494.84;21182802;27;20100;-75
2023/07/21 04:27:48;;;;;;;8.32;3.63;;;;;;;25.17;94.07;100506.91;21163398;27;20063;-74
2023/07/21 04:38:14;;;;;;;8.30;3.83;;;;;;;25.90;96.75;100500.53;21165088;27;20135;-75
2023/07/21 04:48:23;;;;;;;6.97;3.33;;;;;;;26.40;88.38;100511.41;21172762;28;20937;-75
2023/07/21 04:58:49;;;;;;;6.55;3.80;;;;;;;27.25;93.11;100512.09;21187847;27;20042;-75
2023/07/21 05:09:13;;;;;;;9.43;3.67;;;;;;;28.13;99.34;100523.16;21164236;27;20055;-76
2023/07/21 05:19:39;;;;;;;8.93;3.67;;;;;;;29.05;100.00;100524.63;21147713;27;20120;-75
2023/07/21 05:30:14;;;;;;;8.85;3.50;;;;;;;29.99;90.55;100529.25;21108194;27;20504;-76
2023/07/21 05:40:45;;;;;;;11.60;3.67;;;;;;;31.06;57.73;100538.88;21193428;27;20140;-75
2023/07/21 05:51:13;;;;;;;5.07;2.78;;;;;;;32.24;43.56;100533.63;21178474;27;20054;-75
2023/07/21 06:01:39;;;;;;;7.13;3.10;;;;;;;33.38;37.58;100535.34;21175740;27;20054;-76
2023/07/21 06:12:01;;;;;;;;;;;;;;;34.42;35.77;100530.97;21165202;27;20054;-77
2023/07/21 06:22:32;;;;;;;5.68;3.00;;;;;;;35.40;31.27;100537.69;21200005;27;19955;-77
2023/07/21 06:32:55;;;;;;;5.75;2.50;;;;;;;36.31;29.76;100542.00;21168036;27;20059;-77
2023/07/21 06:43:40;;;;;;;5.40;2.80;;;;;;;37.08;29.07;100552.81;21191625;27;20404;-77
2023/07/21 06:54:19;;;;;;;5.13;2.65;;;;;;;37.66;27.88;100553.44;21190634;27;20051;-77
2023/07/21 07:04:43;;;;;;;4.17;1.97;;;;;;;37.90;27.02;100542.66;21145931;28;20388;-77
2023/07/21 07:15:09;;;;;;;4.13;2.15;;;;;;;38.28;26.24;100546.97;21201164;27;20050;-78
2023/07/21 07:25:32;;;;;;;7.32;2.28;;;;;;;38.60;25.13;100549.16;21185746;27;20051;-78
2023/07/21 07:35:55;;;;;;;6.70;2.25;;;;;;;38.79;23.74;100550.84;21169954;27;20055;-77
2023/07/21 07:46:19;;;;;;;5.77;2.20;;;;;;;38.99;23.39;100562.56;21198285;27;20092;-75
2023/07/21 07:56:42;;;;;;;7.25;2.50;;;;;;;39.31;22.89;100576.53;21191205;27;20046;-75
2023/07/21 08:07:07;;;;;;;5.60;2.40;;;;;;;39.66;22.45;100583.75;21198232;27;20046;-76
2023/07/21 08:17:30;;;;;;;4.07;2.08;;;;;;;39.56;22.42;100596.00;21178092;27;20585;-75
2023/07/21 08:27:55;;;;;;;6.18;2.20;;;;;;;39.68;21.92;100591.88;21222029;27;20402;-76
2023/07/21 08:38:17;;;;;;;9.85;2.47;;;;;;;40.03;21.94;100588.91;21220922;27;20050;-75
2023/07/21 08:48:42;;;;;;;6.73;2.17;;;;;;;40.18;21.08;100583.53;21177214;27;20361;-78
2023/07/21 08:59:05;;;;;;;5.28;2.20;;;;;;;40.29;20.53;100588.78;21217381;27;20521;-77
2023/07/21 09:09:18;;;;;;;8.32;2.22;;;;;;;40.74;20.59;100588.25;21244361;27;20043;-76
2023/07/21 09:19:41;;;;;;;3.58;2.10;;;;;;;40.90;19.74;100585.44;21157703;27;20066;-77
2023/07/21 09:30:00;;;;;;;8.15;2.38;;;;;;;41.36;19.13;100588.44;21261219;27;20415;-77
2023/07/21 09:40:29;;;;;;;4.88;2.00;;;;;;;41.81;18.43;100595.19;21177198;27;20138;-77
2023/07/21 09:50:57;;;;;;;3.55;1.98;;;;;;;42.08;18.84;100601.09;21173090;27;20127;-76
2023/07/21 10:01:23;;;;;;;5.32;2.25;;;;;;;42.10;18.59;100614.78;21201973;27;20062;-77
2023/07/21 10:11:47;;;;;;;4.07;2.13;;;;;;;42.02;18.45;100606.50;21180640;27;20120;-76
2023/07/21 10:22:12;;;;;;;5.60;2.20;;;;;;;41.54;18.38;100616.84;21167078;27;20062;-76
2023/07/21 10:32:21;;;;;;;4.88;2.20;;;;;;;41.50;19.27;100637.63;21198689;27;20047;-76
2023/07/21 10:42:44;;;;;;;4.72;2.60;;;;;;;41.19;18.85;100632.00;21190798;27;21763;-77
2023/07/21 10:53:08;;;;;;;3.72;2.03;;;;;;;41.52;18.75;100640.22;21199268;27;20047;-76
2023/07/21 11:03:32;;;;;;;5.40;2.15;;;;;;;41.63;19.24;100635.16;21206082;27;20088;-76
2023/07/21 11:13:40;;;;;;;6.88;2.47;;;;;;;41.93;19.50;100630.69;21162921;27;20428;-76
2023/07/21 11:24:03;;;;;;;6.30;2.30;;;;;;;41.98;19.05;100627.38;21180364;27;20071;-76
2023/07/21 11:34:28;;;;;;;6.40;2.45;;;;;;;41.74;19.32;100633.91;21143481;27;20087;-76
2023/07/21 11:44:52;;;;;;;7.05;2.22;;;;;;;41.68;19.30;100627.13;21143713;27;20098;-77
2023/07/21 11:55:16;;;;;;;7.50;2.05;;;;;;;41.41;19.11;100619.28;21177644;27;20099;-76
2023/07/21 12:05:39;;;;;;;7.40;2.53;;;;;;;41.06;19.26;100605.84;21132726;27;20465;-77
2023/07/21 12:16:03;;;;;;;4.63;2.40;;;;;;;41.06;18.79;100611.38;21167913;27;20065;-76
2023/07/21 12:26:26;;;;;;;6.75;2.33;;;;;;;41.09;18.75;100608.31;21178161;27;20052;-76
2023/07/21 12:36:51;;;;;;;5.60;2.73;;;;;;;41.08;18.73;100603.81;21175032;27;20118;-76
2023/07/21 12:47:13;;;;;;;6.22;2.83;;;;;;;41.37;18.31;100606.81;21179315;27;20101;-77
2023/07/21 12:57:37;;;;;;;6.17;2.33;;;;;;;41.55;18.19;100593.56;21172913;28;20055;-77
2023/07/21 13:08:00;;;;;;;4.90;2.15;;;;;;;41.62;17.88;100602.91;21196435;28;20310;-76
2023/07/21 13:18:24;;;;;;;6.05;2.63;;;;;;;41.35;18.35;100614.47;21207956;27;20581;-78
2023/07/21 13:28:47;;;;;;;8.60;2.58;;;;;;;41.19;18.42;100608.94;21197767;27;20051;-76
2023/07/21 13:39:11;;;;;;;6.57;2.47;;;;;;;40.90;18.43;100609.50;21225596;27;20042;-76
2023/07/21 13:49:34;;;;;;;4.70;2.55;;;;;;;40.70;18.57;100609.00;21202681;27;20047;-76
2023/07/21 13:59:58;;;;;;;4.18;2.72;;;;;;;40.74;18.57;100601.25;21176548;27;20075;-76
2023/07/21 14:17:06;;;;;;;6.25;2.47;;;;;;;40.94;19.09;100603.47;21030777;27;20417;-75
2023/07/21 14:27:29;;;;;;;4.53;2.47;;;;;;;40.62;20.83;100597.94;20934558;28;20429;-75
2023/07/21 14:37:53;;;;;;;4.37;2.43;;;;;;;40.33;21.58;100589.28;20945139;28;20060;-76
2023/07/21 14:48:16;;;;;;;6.13;2.67;;;;;;;39.94;22.58;100589.91;20969336;28;20390;-76
2023/07/21 14:58:40;;;;;;;5.45;2.28;;;;;;;39.29;23.62;100595.16;20965531;28;20056;-76
2023/07/21 15:09:05;;;;;;;6.40;2.22;;;;;;;38.71;24.76;100589.44;20949715;28;20079;-76
2023/07/21 15:19:29;;;;;;;7.63;3.75;;;;;;;38.09;26.60;100598.69;20968439;28;20053;-75
2023/07/21 15:29:51;;;;;;;6.55;2.47;;;;;;;37.01;27.48;100610.41;20891655;28;20071;-74
2023/07/21 15:40:17;;;;;;;7.55;2.80;;;;;;;36.29;28.94;100610.91;20907073;28;20045;-75
2023/07/21 15:50:40;;;;;;;9.67;2.73;;;;;;;35.79;30.05;100621.09;20934036;28;20061;-75
2023/07/21 16:01:04;;;;;;;5.93;2.55;;;;;;;35.52;30.34;100618.97;20891208;28;20556;-75
2023/07/21 16:11:27;;;;;;;6.45;2.78;;;;;;;35.28;30.32;100618.44;20942166;28;20061;-74
2023/07/21 16:21:52;;;;;;;8.45;3.33;;;;;;;35.11;29.98;100622.69;20927157;28;20057;-75
2023/07/21 16:32:14;;;;;;;10.10;3.22;;;;;;;34.68;32.24;100625.56;20900281;28;20049;-76
2023/07/21 16:42:39;;;;;;;10.95;2.38;;;;;;;32.97;35.89;100632.59;20893677;28;20079;-76
2023/07/21 16:53:02;;;;;;;9.65;3.05;;;;;;;32.92;33.87;100640.31;20891666;28;20049;-75
2023/07/21 17:03:27;;;;;;;9.10;3.20;;;;;;;33.03;31.73;100643.06;20884541;28;20053;-75
2023/07/21 17:13:50;;;;;;;10.45;3.22;;;;;;;32.89;31.69;100646.03;20912053;28;20501;-75
2023/07/21 17:24:15;;;;;;;8.57;3.08;;;;;;;32.70;33.42;100656.66;20883810;28;20053;-74
2023/07/21 17:34:37;;;;;;;7.80;3.13;;;;;;;32.51;35.29;100651.75;20862122;28;20055;-74
2023/07/21 17:44:52;;;;;;;11.25;3.38;;;;;;;32.37;35.58;100661.00;20911618;28;20131;-74
2023/07/21 17:55:16;;;;;;;8.50;3.47;;;;;;;32.27;36.01;100670.03;20900815;28;20331;-75
2023/07/21 18:05:40;;;;;;;7.50;3.70;;;;;;;32.11;36.03;100681.22;20905019;28;20044;-74
2023/07/21 18:16:02;;;;;;;13.02;3.78;;;;;;;31.90;36.81;100689.16;20909759;28;20066;-74
2023/07/21 18:26:27;;;;;;;10.55;3.55;;;;;;;31.67;37.17;100706.38;20860198;28;20056;-75
2023/07/21 18:36:50;;;;;;;9.88;3.50;;;;;;;31.43;37.95;100716.31;20874643;28;20064;-75
2023/07/21 18:47:14;;;;;;;14.60;5.88;;;;;;;31.11;38.04;100724.06;20857965;28;20077;-74
2023/07/21 18:57:37;;;;;;;11.23;4.57;;;;;;;30.97;38.12;100740.50;20887294;28;20052;-75
2023/07/21 19:08:01;;;;;;;9.70;3.15;;;;;;;30.70;37.38;100760.50;20903993;28;20085;-74
2023/07/21 19:18:26;;;;;;;5.75;3.05;;;;;;;30.48;37.34;100773.78;20899680;28;20438;-73
2023/07/21 19:28:50;;;;;;;7.35;4.50;;;;;;;30.24;38.02;100783.59;20912638;28;20507;-75
2023/07/21 19:39:13;;;;;;;8.10;3.30;;;;;;;29.92;37.89;100783.84;20907927;28;20071;-74
2023/07/21 19:49:39;;;;;;;10.55;3.75;;;;;;;29.85;37.49;100787.03;20923342;28;20071;-74
2023/07/21 20:00:01;;;;;;;9.85;3.90;;;;;;;29.62;38.69;100810.25;20899699;28;20053;-75
2023/07/21 20:10:26;;;;;;;4.88;3.03;;;;;;;29.41;39.57;100808.84;20902326;28;20049;-75
2023/07/21 20:20:49;;;;;;;8.35;4.10;;;;;;;29.13;39.98;100812.38;20905561;28;20393;-74
2023/07/21 20:31:13;;;;;;;9.98;3.92;;;;;;;29.11;39.82;100815.19;20863774;28;20045;-74
2023/07/21 20:41:35;;;;;;;7.90;3.22;;;;;;;28.90;40.76;100806.47;20904225;28;20443;-74
2023/07/21 20:52:00;;;;;;;7.43;3.42;;;;;;;28.79;40.55;100808.09;20920093;28;20049;-74
2023/07/21 21:02:22;;;;;;;9.07;3.80;;;;;;;28.68;41.55;100807.81;20925437;28;20139;-75
2023/07/21 21:12:46;;;;;;;8.10;4.13;;;;;;;28.62;41.61;100802.75;20921968;28;20057;-75
2023/07/21 21:23:09;;;;;;;9.18;3.83;;;;;;;28.60;41.00;100812.81;20906156;28;20049;-73
2023/07/21 21:33:33;;;;;;;6.88;3.40;;;;;;;28.47;41.04;100808.09;20938284;28;20122;-74
2023/07/21 21:43:56;;;;;;;8.13;3.17;;;;;;;28.31;41.31;100806.34;20843201;28;20052;-74
2023/07/21 21:54:20;;;;;;;8.45;3.70;;;;;;;28.11;41.32;100808.31;20929724;28;20147;-74
2023/07/21 22:04:43;;;;;;;7.72;3.83;;;;;;;27.88;41.50;100803.31;20962251;28;20408;-75
2023/07/21 22:15:08;;;;;;;6.97;3.60;;;;;;;28.02;42.64;100813.41;20900811;28;20082;-74
2023/07/21 22:25:31;;;;;;;8.75;3.70;;;;;;;27.75;42.26;100823.94;20893806;28;20052;-74
2023/07/21 22:35:55;;;;;;;9.75;4.13;;;;;;;27.79;42.80;100816.50;20900732;28;20145;-74
2023/07/21 22:46:18;;;;;;;9.18;3.70;;;;;;;27.54;44.27;100814.25;20893687;28;20444;-75
2023/07/21 22:56:42;;;;;;;11.10;4.10;;;;;;;27.01;44.53;100811.63;20911896;28;20052;-74
2023/07/21 23:07:05;;;;;;;7.07;3.85;;;;;;;27.30;44.89;100811.00;20923286;28;20578;-74
2023/07/21 23:17:30;;;;;;;9.18;4.25;;;;;;;27.17;45.28;100809.88;20948748;28;20045;-74
2023/07/21 23:27:53;;;;;;;8.30;4.47;;;;;;;27.01;46.89;100804.38;20900844;28;20048;-74
2023/07/21 23:38:17;;;;;;;9.88;4.45;;;;;;;26.86;46.84;100786.16;20883997;28;20398;-74
2023/07/21 23:48:39;;;;;;;9.35;4.28;;;;;;;26.75;47.04;100778.56;20887795;28;20048;-75
2023/07/21 23:59:04;;;;;;;8.55;4.03;;;;;;;26.67;48.55;100775.38;20960174;28;20113;-75
